Angier, North Carolina
Current Conditions -  °F | °C
As of 9:55 AM on Wednesday 26 Nov 2014 (Local Time) from KHRJ Reporting Station
Moderate Rain Moderate Rain  
Wind Chill: 42°   Ceiling: 1000
Heat Index: 47°   Visibility: 4mi
Dew Point: 46°   Wind: 9mph
Humidity: 99%   Direction: 10°N
Pressure: 29.91"   Gusts: 17mph
Location:  35.51°N, 78.74°W
Report Text: KHRJ 261455Z AUTO 01008G15KT 340V040 4SM RA BKN010 BKN017 OVC046 08/08 A2991 RMK AO2 P0008 60028 T00820080
Loading
Personal Weather Stations






























Interactive Weather Map New forecast layout! Learn more

10-Day Weather Forecast

Advertisements
Track Severe Weather on mobile